createdAt,value
2022-11-24T00:01:23.892Z,5.70
2022-11-24T00:03:56.274Z,5.70
2022-11-24T00:06:24.081Z,5.60
2022-11-24T00:08:51.542Z,5.50
2022-11-24T00:11:21.024Z,5.50
2022-11-24T00:13:48.436Z,5.40
2022-11-24T00:16:17.769Z,5.40
2022-11-24T00:18:46.696Z,5.30
2022-11-24T00:21:15.112Z,5.40
2022-11-24T00:23:42.449Z,5.40
2022-11-24T00:26:15.151Z,5.40
2022-11-24T00:28:43.405Z,5.40
2022-11-24T00:31:27.763Z,5.40
2022-11-24T00:33:56.897Z,5.30
2022-11-24T00:36:26.220Z,5.30
2022-11-24T00:39:04.479Z,5.30
2022-11-24T00:41:31.752Z,5.30
2022-11-24T00:43:58.884Z,5.20
2022-11-24T00:46:26.679Z,5.30
2022-11-24T00:48:53.950Z,5.30
2022-11-24T00:51:23.013Z,5.30
2022-11-24T00:53:49.835Z,5.20
2022-11-24T00:56:16.518Z,5.20
2022-11-24T00:58:43.216Z,5.10
2022-11-24T01:01:15.675Z,5.10
2022-11-24T01:03:43.248Z,5.20
2022-11-24T01:06:12.512Z,5.20
2022-11-24T01:08:41.982Z,5.20
2022-11-24T01:11:08.662Z,5.20
2022-11-24T01:13:35.368Z,5.20
2022-11-24T01:16:02.214Z,5.20
2022-11-24T01:18:28.946Z,5.30
2022-11-24T01:20:55.714Z,5.30
2022-11-24T01:23:22.432Z,5.40
2022-11-24T01:25:49.165Z,5.50
2022-11-24T01:28:15.863Z,5.60
2022-11-24T01:30:42.585Z,5.60
2022-11-24T01:33:09.356Z,5.60
2022-11-24T01:35:36.840Z,5.70
2022-11-24T01:38:03.596Z,5.60
2022-11-24T01:40:30.281Z,5.60
2022-11-24T01:43:02.918Z,5.60
2022-11-24T01:45:40.937Z,5.60
2022-11-24T01:48:16.347Z,5.60
2022-11-24T01:50:44.104Z,5.60
2022-11-24T01:53:13.363Z,5.50
2022-11-24T01:55:41.161Z,5.50
2022-11-24T01:58:18.883Z,5.50
2022-11-24T02:00:46.050Z,5.40
2022-11-24T02:03:15.977Z,5.40
2022-11-24T02:05:57.610Z,5.30
2022-11-24T02:08:37.998Z,5.30
2022-11-24T02:11:05.504Z,5.30
2022-11-24T02:13:37.911Z,5.20
2022-11-24T02:16:07.454Z,5.30
2022-11-24T02:18:34.410Z,5.30
2022-11-24T02:21:01.447Z,5.20
2022-11-24T02:23:46.716Z,5.20
2022-11-24T02:26:31.006Z,5.20
2022-11-24T02:28:57.907Z,5.10
2022-11-24T02:31:24.822Z,5.20
2022-11-24T02:33:51.943Z,5.20
2022-11-24T02:36:18.662Z,5.30
2022-11-24T02:38:45.410Z,5.20
2022-11-24T02:41:16.877Z,5.30
2022-11-24T02:43:49.633Z,5.30
2022-11-24T02:46:16.653Z,5.30
2022-11-24T02:48:43.387Z,5.30
2022-11-24T02:51:10.072Z,5.30
2022-11-24T02:53:36.843Z,5.30
2022-11-24T02:56:03.902Z,5.30
2022-11-24T02:58:30.729Z,5.10
2022-11-24T03:00:57.970Z,5.10
2022-11-24T03:03:25.222Z,5.00
2022-11-24T03:05:51.950Z,4.90
2022-11-24T03:08:19.000Z,4.90
2022-11-24T03:10:45.874Z,4.90
2022-11-24T03:13:12.649Z,4.90
2022-11-24T03:15:39.526Z,4.90
2022-11-24T03:18:06.437Z,4.90
2022-11-24T03:20:33.376Z,4.90
2022-11-24T03:23:00.129Z,4.80
2022-11-24T03:25:26.858Z,4.70
2022-11-24T03:27:55.512Z,4.70
2022-11-24T03:30:22.212Z,4.60
2022-11-24T03:32:52.455Z,4.60
2022-11-24T03:35:20.296Z,4.60
2022-11-24T03:37:47.255Z,4.60
2022-11-24T03:40:14.120Z,4.70
2022-11-24T03:42:41.083Z,4.80
2022-11-24T03:45:44.817Z,4.80
2022-11-24T03:47:54.954Z,5.00
2022-11-24T03:50:21.659Z,5.00
2022-11-24T03:52:48.364Z,5.10
2022-11-24T03:55:15.119Z,5.20
2022-11-24T03:57:41.813Z,5.20
2022-11-24T04:00:10.383Z,5.20
2022-11-24T04:02:37.987Z,5.30
2022-11-24T04:05:05.554Z,5.40
2022-11-24T04:07:32.272Z,5.50
2022-11-24T04:09:59.007Z,5.50
2022-11-24T04:12:44.222Z,5.50
2022-11-24T04:15:16.772Z,5.50
2022-11-24T04:17:44.708Z,5.50
2022-11-24T04:20:12.316Z,5.50
2022-11-24T04:22:39.658Z,5.50
2022-11-24T04:25:07.628Z,5.50
2022-11-24T04:27:35.519Z,5.50
2022-11-24T04:30:02.851Z,5.60
2022-11-24T04:32:29.559Z,5.60
2022-11-24T04:34:56.292Z,5.50
2022-11-24T04:37:23.135Z,5.40
2022-11-24T04:39:49.851Z,5.50
2022-11-24T04:42:16.560Z,5.40
2022-11-24T04:44:43.263Z,5.40
2022-11-24T04:47:16.837Z,5.30
2022-11-24T04:49:43.537Z,5.40
2022-11-24T04:52:10.217Z,5.30
2022-11-24T04:54:37.140Z,5.30
2022-11-24T04:57:03.952Z,5.30
2022-11-24T04:59:30.792Z,5.20
2022-11-24T05:01:57.676Z,5.10
2022-11-24T05:04:24.465Z,5.10
2022-11-24T05:06:51.207Z,5.00
2022-11-24T05:09:18.258Z,5.00
2022-11-24T05:11:44.970Z,5.00
2022-11-24T05:14:11.674Z,5.10
2022-11-24T05:16:38.423Z,5.10
2022-11-24T05:19:05.158Z,5.20
2022-11-24T05:21:32.027Z,5.30
2022-11-24T05:23:58.760Z,5.50
2022-11-24T05:26:26.705Z,5.50
2022-11-24T05:28:53.953Z,5.40
2022-11-24T05:31:20.841Z,5.50
2022-11-24T05:33:47.603Z,5.50
2022-11-24T05:36:34.302Z,5.60
2022-11-24T05:39:01.431Z,5.50
2022-11-24T05:41:28.180Z,5.60
2022-11-24T05:43:54.891Z,5.70
2022-11-24T05:46:21.689Z,5.70
2022-11-24T05:48:48.611Z,5.70
2022-11-24T05:51:15.315Z,5.70
2022-11-24T05:53:42.038Z,5.60
2022-11-24T05:56:08.891Z,5.70
2022-11-24T05:58:35.630Z,5.60
2022-11-24T06:01:06.716Z,5.70
2022-11-24T06:03:33.964Z,5.70
2022-11-24T06:06:00.707Z,5.70
2022-11-24T06:08:31.067Z,5.60
2022-11-24T06:11:19.940Z,5.70
2022-11-24T06:13:48.723Z,5.70
2022-11-24T06:16:16.162Z,5.70
2022-11-24T06:18:43.022Z,5.70
2022-11-24T06:21:11.497Z,5.80
2022-11-24T06:23:39.100Z,5.70
2022-11-24T06:26:06.481Z,5.70
2022-11-24T06:28:33.200Z,5.70
2022-11-24T06:31:04.570Z,5.80
2022-11-24T06:33:33.339Z,5.80
2022-11-24T06:36:05.335Z,5.90
2022-11-24T06:38:32.636Z,5.90
2022-11-24T06:41:07.544Z,5.80
2022-11-24T06:43:35.352Z,5.80
2022-11-24T06:46:02.643Z,5.90
2022-11-24T06:48:30.354Z,5.90
2022-11-24T06:51:01.811Z,5.90
2022-11-24T06:53:39.212Z,6.00
2022-11-24T06:56:13.705Z,6.00
2022-11-24T06:58:45.149Z,6.00
2022-11-24T07:01:16.588Z,6.00
2022-11-24T07:03:43.470Z,6.10
2022-11-24T07:06:10.408Z,6.10
2022-11-24T07:08:37.127Z,6.00
2022-11-24T07:11:08.863Z,6.00
2022-11-24T07:13:35.565Z,6.00
2022-11-24T07:16:23.121Z,6.00
2022-11-24T07:18:51.460Z,5.90
2022-11-24T07:21:19.557Z,5.80
2022-11-24T07:23:50.111Z,5.90
2022-11-24T07:26:16.995Z,5.90
2022-11-24T07:28:43.871Z,5.80
2022-11-24T07:31:13.024Z,5.80
2022-11-24T07:33:40.086Z,5.60
2022-11-24T07:36:08.698Z,5.50
2022-11-24T07:38:35.932Z,5.50
2022-11-24T07:41:07.592Z,5.50
2022-11-24T07:43:34.928Z,5.50
2022-11-24T07:46:02.430Z,5.40
2022-11-24T07:48:29.452Z,5.40
2022-11-24T07:50:59.301Z,5.50
2022-11-24T07:53:26.316Z,5.50
2022-11-24T07:56:00.175Z,5.50
2022-11-24T07:58:33.253Z,5.50
2022-11-24T08:01:00.665Z,5.50
2022-11-24T08:03:27.982Z,5.50
2022-11-24T08:06:23.027Z,5.60
2022-11-24T08:08:47.494Z,5.60
2022-11-24T08:11:16.693Z,5.50
2022-11-24T08:13:44.148Z,5.60
2022-11-24T08:16:13.214Z,5.60
2022-11-24T08:18:40.602Z,5.60
2022-11-24T08:21:08.489Z,5.70
2022-11-24T08:23:35.392Z,5.70
2022-11-24T08:26:13.557Z,5.80
2022-11-24T08:28:40.358Z,5.90
2022-11-24T08:31:16.342Z,5.90
2022-11-24T08:33:43.436Z,5.90
2022-11-24T08:36:12.641Z,6.00
2022-11-24T08:38:40.046Z,6.10
2022-11-24T08:41:12.023Z,6.20
2022-11-24T08:43:38.921Z,6.20
2022-11-24T08:46:07.995Z,6.30
2022-11-24T08:48:34.920Z,6.50
2022-11-24T08:51:08.059Z,6.60
2022-11-24T08:53:34.838Z,6.70
2022-11-24T08:56:02.547Z,6.70
2022-11-24T08:58:30.177Z,6.60
2022-11-24T09:01:07.684Z,6.60
2022-11-24T09:03:34.741Z,6.70
2022-11-24T09:06:02.344Z,6.70
2022-11-24T09:08:33.274Z,6.70
2022-11-24T09:11:11.829Z,6.60
2022-11-24T09:13:39.850Z,6.50
2022-11-24T09:16:27.553Z,6.50
2022-11-24T09:18:59.940Z,6.40
2022-11-24T09:21:27.605Z,6.40
2022-11-24T09:23:55.271Z,6.30
2022-11-24T09:26:24.775Z,6.30
2022-11-24T09:28:54.552Z,6.30
2022-11-24T09:31:27.047Z,6.30
2022-11-24T09:33:55.017Z,6.40
2022-11-24T09:36:22.557Z,6.50
2022-11-24T09:38:49.574Z,6.50
2022-11-24T09:41:53.809Z,6.50
2022-11-24T09:44:50.188Z,6.50
2022-11-24T09:47:47.026Z,6.50
2022-11-24T09:50:21.803Z,6.60
2022-11-24T09:53:11.814Z,6.70
2022-11-24T09:55:49.325Z,6.90
2022-11-24T09:58:31.515Z,7.00
2022-11-24T10:01:01.622Z,7.10
2022-11-24T10:03:45.252Z,7.10
2022-11-24T10:06:25.666Z,7.10
2022-11-24T10:09:32.096Z,6.90
2022-11-24T10:12:36.751Z,6.80
2022-11-24T10:15:15.497Z,6.70
2022-11-24T10:17:48.242Z,6.60
2022-11-24T10:20:23.783Z,6.60
2022-11-24T10:23:11.583Z,6.60
2022-11-24T10:25:53.546Z,6.70
2022-11-24T10:28:20.235Z,6.80
2022-11-24T10:30:47.011Z,7.00
2022-11-24T10:33:16.819Z,7.00
2022-11-24T10:35:55.320Z,7.20
2022-11-24T10:38:29.650Z,7.40
2022-11-24T10:41:05.243Z,7.60
2022-11-24T10:43:32.062Z,7.90
2022-11-24T10:46:12.115Z,8.30
2022-11-24T10:48:47.815Z,8.40
2022-11-24T10:51:23.002Z,8.70
2022-11-24T10:53:55.421Z,8.80
2022-11-24T10:56:22.349Z,8.80
2022-11-24T10:58:49.051Z,8.90
2022-11-24T11:01:21.079Z,8.90
2022-11-24T11:03:53.277Z,9.10
2022-11-24T11:06:28.311Z,8.90
2022-11-24T11:09:07.128Z,8.70
2022-11-24T11:11:35.750Z,8.50
2022-11-24T11:14:07.812Z,8.10
2022-11-24T11:16:46.155Z,7.90
2022-11-24T11:19:48.456Z,7.60
2022-11-24T11:22:24.847Z,7.60
2022-11-24T11:25:22.205Z,7.60
2022-11-24T11:27:49.648Z,7.60
2022-11-24T11:36:11.376Z,8.00
2022-11-24T11:38:40.219Z,8.40
2022-11-24T11:41:13.939Z,8.60
2022-11-24T11:43:41.557Z,8.70
2022-11-24T11:46:11.392Z,8.90
2022-11-24T11:48:44.082Z,8.90
2022-11-24T11:51:29.691Z,8.90
2022-11-24T11:54:28.512Z,9.00
2022-11-24T11:57:07.719Z,9.00
2022-11-24T11:59:49.819Z,8.90
2022-11-24T12:02:47.245Z,8.80
2022-11-24T12:05:35.067Z,8.80
2022-11-24T12:08:21.267Z,8.60
2022-11-24T12:11:07.831Z,8.50
2022-11-24T12:13:45.373Z,8.50
2022-11-24T12:16:50.308Z,8.50
2022-11-24T12:19:28.178Z,8.50
2022-11-24T12:22:25.593Z,8.80
2022-11-24T12:25:14.494Z,9.10
2022-11-24T12:27:46.483Z,9.20
2022-11-24T12:30:18.148Z,9.00
2022-11-24T12:32:47.730Z,8.90
2022-11-24T12:35:17.920Z,8.80
2022-11-24T12:37:53.694Z,9.00
2022-11-24T12:40:46.684Z,9.10
2022-11-24T12:43:24.278Z,9.40
2022-11-24T12:46:14.022Z,9.70
2022-11-24T12:49:00.997Z,9.70
2022-11-24T12:51:33.288Z,9.60
2022-11-24T12:54:03.222Z,9.40
2022-11-24T12:56:40.479Z,9.30
2022-11-24T12:59:18.088Z,9.30
2022-11-24T13:02:14.751Z,9.50
2022-11-24T13:04:51.315Z,9.90
2022-11-24T13:07:39.486Z,10.30
2022-11-24T13:10:46.910Z,10.80
2022-11-24T13:13:15.596Z,10.70
2022-11-24T13:16:28.499Z,10.70
2022-11-24T13:18:58.205Z,10.60
2022-11-24T13:21:30.821Z,10.30
2022-11-24T13:23:58.808Z,10.10
2022-11-24T13:26:50.928Z,10.00
2022-11-24T13:29:37.583Z,10.10
2022-11-24T13:32:07.252Z,9.90
2022-11-24T13:34:42.977Z,9.60
2022-11-24T13:37:42.108Z,9.30
2022-11-24T13:40:12.019Z,9.00
2022-11-24T13:43:02.982Z,8.80
2022-11-24T13:45:39.287Z,8.60
2022-11-24T13:48:22.234Z,8.50
2022-11-24T13:50:49.680Z,8.50
2022-11-24T13:53:41.466Z,8.40
2022-11-24T13:56:15.040Z,8.20
2022-11-24T13:58:49.142Z,8.10
2022-11-24T14:01:50.978Z,7.90
2022-11-24T14:04:32.261Z,7.80
2022-11-24T14:07:08.190Z,7.70
2022-11-24T14:09:35.319Z,7.80
2022-11-24T14:12:11.848Z,7.70
2022-11-24T14:14:39.154Z,7.70
2022-11-24T14:17:06.895Z,7.60
2022-11-24T14:19:33.698Z,7.50
2022-11-24T14:22:00.547Z,7.50
2022-11-24T14:24:38.099Z,7.50
2022-11-24T14:27:14.307Z,7.40
2022-11-24T14:29:57.913Z,7.30
2022-11-24T14:32:24.856Z,7.30
2022-11-24T14:34:52.213Z,7.20
2022-11-24T14:37:20.065Z,7.10
2022-11-24T14:39:47.147Z,7.00
2022-11-24T14:42:22.907Z,6.90
2022-11-24T14:44:59.677Z,6.90
2022-11-24T14:47:44.760Z,7.00
2022-11-24T14:50:13.590Z,7.10
2022-11-24T14:52:45.007Z,7.10
2022-11-24T14:55:27.805Z,7.10
2022-11-24T14:57:54.903Z,6.90
2022-11-24T15:00:24.698Z,6.80
2022-11-24T15:02:55.508Z,6.80
2022-11-24T15:05:24.787Z,6.80
2022-11-24T15:08:01.058Z,6.80
2022-11-24T15:10:38.488Z,6.70
2022-11-24T15:13:18.935Z,6.70
2022-11-24T15:15:51.033Z,6.60
2022-11-24T15:18:29.329Z,6.60
2022-11-24T15:20:56.480Z,6.60
2022-11-24T15:23:31.001Z,6.70
2022-11-24T15:26:17.994Z,6.70
2022-11-24T15:28:46.804Z,6.60
2022-11-24T15:31:14.531Z,6.70
2022-11-24T15:33:42.163Z,6.70
2022-11-24T15:36:08.939Z,6.80
2022-11-24T15:38:35.666Z,6.80
2022-11-24T15:41:09.934Z,6.70
2022-11-24T15:43:41.117Z,6.70
2022-11-24T15:46:08.909Z,6.70
2022-11-24T15:48:35.880Z,6.60
2022-11-24T15:51:07.711Z,6.60
2022-11-24T15:53:49.986Z,6.40
2022-11-24T15:56:25.976Z,6.30
2022-11-24T15:58:53.104Z,6.20
2022-11-24T16:01:21.372Z,6.20
2022-11-24T16:03:48.961Z,6.20
2022-11-24T16:06:24.607Z,6.20
2022-11-24T16:08:53.278Z,6.10
2022-11-24T16:11:20.584Z,6.10
2022-11-24T16:13:52.276Z,6.00
2022-11-24T16:16:21.340Z,6.00
2022-11-24T16:18:48.541Z,6.00
2022-11-24T16:21:15.419Z,5.90
2022-11-24T16:23:42.228Z,5.80
2022-11-24T16:26:10.342Z,5.70
2022-11-24T16:28:37.228Z,5.70
2022-11-24T16:31:04.160Z,5.70
2022-11-24T16:33:31.284Z,5.70
2022-11-24T16:35:58.425Z,5.60
2022-11-24T16:38:25.425Z,5.50
2022-11-24T16:40:53.449Z,5.50
2022-11-24T16:43:20.640Z,5.60
2022-11-24T16:46:16.230Z,5.60
2022-11-24T16:48:44.487Z,5.60
2022-11-24T16:51:12.756Z,5.50
2022-11-24T16:53:40.207Z,5.40
2022-11-24T16:56:07.450Z,5.30
2022-11-24T16:58:37.383Z,5.20
2022-11-24T17:01:06.119Z,5.10
2022-11-24T17:03:34.606Z,5.10
2022-11-24T17:06:01.389Z,5.00
2022-11-24T17:08:32.088Z,5.00
2022-11-24T17:11:08.807Z,4.90
2022-11-24T17:13:35.667Z,4.90
2022-11-24T17:16:06.799Z,4.90
2022-11-24T17:18:34.222Z,4.80
2022-11-24T17:21:07.780Z,4.80
2022-11-24T17:23:36.439Z,4.80
2022-11-24T17:26:08.640Z,4.70
2022-11-24T17:28:36.151Z,4.70
2022-11-24T17:31:10.230Z,4.70
2022-11-24T17:33:37.159Z,4.50
2022-11-24T17:36:05.848Z,4.50
2022-11-24T17:38:32.974Z,4.50
2022-11-24T17:40:59.878Z,4.60
2022-11-24T17:43:27.527Z,4.70
2022-11-24T17:45:57.023Z,4.70
2022-11-24T17:48:24.217Z,4.70
2022-11-24T17:51:01.708Z,4.70
2022-11-24T17:53:28.920Z,4.50
2022-11-24T17:55:59.747Z,4.50
2022-11-24T17:58:30.916Z,4.50
2022-11-24T18:00:58.519Z,4.40
2022-11-24T18:03:28.832Z,4.40
2022-11-24T18:05:55.958Z,4.40
2022-11-24T18:08:24.159Z,4.30
2022-11-24T18:10:51.159Z,4.20
2022-11-24T18:13:40.738Z,4.10
2022-11-24T18:16:07.637Z,4.10
2022-11-24T18:18:39.325Z,4.00
2022-11-24T18:21:11.708Z,4.10
2022-11-24T18:23:38.572Z,4.10
2022-11-24T18:26:06.302Z,4.00
2022-11-24T18:28:35.032Z,4.00
2022-11-24T18:31:03.828Z,4.00
2022-11-24T18:33:31.577Z,3.80
2022-11-24T18:36:00.415Z,3.90
2022-11-24T18:38:27.998Z,3.90
2022-11-24T18:40:57.149Z,3.90
2022-11-24T18:43:25.503Z,3.90
2022-11-24T18:45:53.990Z,3.80
2022-11-24T18:48:22.843Z,3.70
2022-11-24T18:50:54.632Z,3.60
2022-11-24T18:53:22.290Z,3.60
2022-11-24T18:56:02.308Z,3.70
2022-11-24T18:58:30.690Z,3.70
2022-11-24T19:01:11.899Z,3.60
2022-11-24T19:03:49.106Z,3.60
2022-11-24T19:06:18.120Z,3.50
2022-11-24T19:08:46.260Z,3.50
2022-11-24T19:11:28.273Z,3.50
2022-11-24T19:13:55.624Z,3.50
2022-11-24T19:16:23.503Z,3.50
2022-11-24T19:18:53.969Z,3.40
2022-11-24T19:21:21.828Z,3.40
2022-11-24T19:23:49.633Z,3.40
2022-11-24T19:26:16.351Z,3.30
2022-11-24T19:28:43.216Z,3.30
2022-11-24T19:31:12.787Z,3.30
2022-11-24T19:33:40.445Z,3.30
2022-11-24T19:36:08.579Z,3.20
2022-11-24T19:38:35.551Z,3.20
2022-11-24T19:41:06.636Z,3.10
2022-11-24T19:43:34.511Z,3.10
2022-11-24T19:46:22.355Z,3.10
2022-11-24T19:48:50.816Z,3.10
2022-11-24T19:51:21.461Z,3.10
2022-11-24T19:53:48.493Z,3.10
2022-11-24T19:56:18.348Z,3.10
2022-11-24T19:58:45.931Z,3.00
2022-11-24T20:01:33.403Z,3.00
2022-11-24T20:04:12.900Z,3.10
2022-11-24T20:06:42.384Z,3.00
2022-11-24T20:09:12.015Z,2.90
2022-11-24T20:11:39.378Z,2.80
2022-11-24T20:14:07.513Z,2.80
2022-11-24T20:16:35.089Z,2.80
2022-11-24T20:19:07.168Z,2.80
2022-11-24T20:21:36.015Z,2.80
2022-11-24T20:24:05.087Z,2.80
2022-11-24T20:26:38.402Z,2.90
2022-11-24T20:29:06.301Z,2.80
2022-11-24T20:31:37.319Z,2.80
2022-11-24T20:34:05.271Z,2.70
2022-11-24T20:36:34.146Z,2.60
2022-11-24T20:39:03.248Z,2.50
2022-11-24T20:41:32.323Z,2.50
2022-11-24T20:44:01.485Z,2.40
2022-11-24T20:46:32.867Z,2.50
2022-11-24T20:49:00.095Z,2.50
2022-11-24T20:51:32.205Z,2.50
2022-11-24T20:54:01.582Z,2.50
2022-11-24T20:56:31.366Z,2.40
2022-11-24T20:58:58.892Z,2.40
2022-11-24T21:01:35.094Z,2.40
2022-11-24T21:04:03.087Z,2.40
2022-11-24T21:06:30.615Z,2.40
2022-11-24T21:09:03.472Z,2.40
2022-11-24T21:11:31.228Z,2.30
2022-11-24T21:13:58.483Z,2.30
2022-11-24T21:16:30.952Z,2.20
2022-11-24T21:19:06.997Z,2.20
2022-11-24T21:21:35.657Z,2.20
2022-11-24T21:24:09.560Z,2.20
2022-11-24T21:26:37.354Z,2.10
2022-11-24T21:29:04.672Z,2.00
2022-11-24T21:31:34.466Z,2.10
2022-11-24T21:34:01.158Z,2.10
2022-11-24T21:36:27.987Z,2.10
2022-11-24T21:38:56.722Z,2.00
2022-11-24T21:41:26.554Z,2.10
2022-11-24T21:43:55.877Z,2.00
2022-11-24T21:46:23.021Z,2.00
2022-11-24T21:48:50.300Z,2.00
2022-11-24T21:51:19.512Z,2.00
2022-11-24T21:53:47.086Z,2.00
2022-11-24T21:56:19.216Z,2.10
2022-11-24T21:58:50.256Z,2.10
2022-11-24T22:01:19.243Z,2.00
2022-11-24T22:03:46.294Z,1.90
2022-11-24T22:06:13.507Z,1.90
2022-11-24T22:08:40.339Z,1.80
2022-11-24T22:11:10.887Z,1.80
2022-11-24T22:13:37.739Z,1.90
2022-11-24T22:16:10.313Z,2.00
2022-11-24T22:18:39.149Z,2.00
2022-11-24T22:21:07.894Z,1.80
2022-11-24T22:23:35.731Z,1.80
2022-11-24T22:26:07.468Z,1.80
2022-11-24T22:28:35.197Z,1.90
2022-11-24T22:31:10.824Z,1.90
2022-11-24T22:33:37.750Z,1.90
2022-11-24T22:36:04.955Z,2.00
2022-11-24T22:38:33.054Z,2.00
2022-11-24T22:41:07.645Z,2.00
2022-11-24T22:43:36.244Z,2.00
2022-11-24T22:46:12.243Z,1.90
2022-11-24T22:48:39.972Z,2.10
2022-11-24T22:51:09.219Z,2.10
2022-11-24T22:53:36.162Z,2.20
2022-11-24T22:56:05.317Z,2.20
2022-11-24T22:58:32.977Z,2.20
2022-11-24T23:01:10.635Z,2.20
2022-11-24T23:03:38.335Z,2.20
2022-11-24T23:06:08.334Z,2.20
2022-11-24T23:08:36.188Z,2.20
2022-11-24T23:11:05.852Z,2.30
2022-11-24T23:13:32.630Z,2.30
2022-11-24T23:16:14.279Z,2.20
2022-11-24T23:18:41.765Z,2.20
2022-11-24T23:21:15.255Z,2.30
2022-11-24T23:23:42.318Z,2.20
2022-11-24T23:26:12.215Z,2.20
2022-11-24T23:28:39.772Z,2.30
2022-11-24T23:31:11.977Z,2.40
2022-11-24T23:33:39.726Z,2.40
2022-11-24T23:36:15.422Z,2.30
2022-11-24T23:38:42.775Z,2.40
2022-11-24T23:41:13.134Z,2.50
2022-11-24T23:43:40.949Z,2.60
2022-11-24T23:46:13.662Z,2.60
2022-11-24T23:48:41.095Z,2.70
2022-11-24T23:51:13.749Z,2.70
2022-11-24T23:53:41.720Z,2.60
2022-11-24T23:56:12.076Z,2.50
2022-11-24T23:58:39.043Z,2.60
